Time;durP1;ratioP1;P1;durP2;ratioP2;P2;SDS_P1;SDS_P2;PMS_P1;PMS_P2;Temp;Humidity;BMP_temperature;BMP_pressure;BME280_temperature;BME280_humidity;BME280_pressure;Samples;Min_cycle;Max_cycle;Signal;HPM_P1;HPM_P2
2022/06/03 01:09:54;;;;;;;9.40;8.47;;;;;;;;;;7367366;19;20560;-78
2022/06/03 01:12:31;;;;;;;10.20;9.20;;;;;;;;;;7369423;19;20171;-79
2022/06/03 01:15:15;;;;;;;11.57;9.77;;;;;;;;;;7382719;19;20141;-77
2022/06/03 01:17:50;;;;;;;10.30;9.30;;;;;;;;;;7370880;19;21398;-77
2022/06/03 01:20:22;;;;;;;9.50;8.60;;;;;;;;;;7378008;19;20144;-78
2022/06/03 01:22:51;;;;;;;10.50;8.27;;;;;;;;;;7382082;19;20148;-77
2022/06/03 01:25:17;;;;;;;11.33;8.87;;;;;;;;;;7386028;19;20145;-80
2022/06/03 01:28:02;;;;;;;9.83;8.93;;;;;;;;;;7381976;19;20144;-78
2022/06/03 01:30:40;;;;;;;10.73;9.00;;;;;;;;;;7369893;19;20136;-79
2022/06/03 01:33:06;;;;;;;10.83;9.83;;;;;;;;;;7370334;19;20186;-79
2022/06/03 01:35:32;;;;;;;10.17;9.13;;;;;;;;;;7377988;19;20180;-79
2022/06/03 01:37:58;;;;;;;10.40;9.50;;;;;;;;;;7384855;19;20137;-78
2022/06/03 01:40:32;;;;;;;10.27;9.27;;;;;;;;;;7376384;19;20147;-78
2022/06/03 01:43:20;;;;;;;9.90;8.70;;;;;;;;;;7377998;19;20152;-78
2022/06/03 01:46:04;;;;;;;10.07;9.20;;;;;;;;;;7378015;19;20177;-78
2022/06/03 01:48:49;;;;;;;9.43;8.30;;;;;;;;;;7369164;19;20618;-77
2022/06/03 01:51:42;;;;;;;9.83;8.87;;;;;;;;;;7372078;19;20156;-77
2022/06/03 01:54:27;;;;;;;11.17;9.03;;;;;;;;;;7380934;19;20669;-78
2022/06/03 01:56:59;;;;;;;9.60;8.20;;;;;;;;;;7374052;19;20511;-78
2022/06/03 01:59:51;;;;;;;10.30;9.30;;;;;;;;;;7380860;19;20141;-78
2022/06/03 02:02:37;;;;;;;12.13;9.73;;;;;;;;;;7379301;19;20200;-78
2022/06/03 02:05:18;;;;;;;10.17;8.83;;;;;;;;;;7396362;19;20144;-78
2022/06/03 02:08:09;;;;;;;9.67;8.67;;;;;;;;;;7414983;19;20153;-78
2022/06/03 02:10:47;;;;;;;12.00;9.30;;;;;;;;;;7414336;19;20158;-78
2022/06/03 02:13:28;;;;;;;10.23;9.27;;;;;;;;;;7409321;19;20144;-78
2022/06/03 02:16:00;;;;;;;10.90;9.90;;;;;;;;;;7412528;19;20157;-78
2022/06/03 02:18:26;;;;;;;10.20;9.17;;;;;;;;;;7375713;19;20157;-78
2022/06/03 02:21:01;;;;;;;9.80;8.90;;;;;;;;;;7376783;19;20147;-78
2022/06/03 02:23:40;;;;;;;9.97;8.97;;;;;;;;;;7383159;19;20136;-79
2022/06/03 02:26:18;;;;;;;9.90;8.90;;;;;;;;;;7382489;19;20153;-78
2022/06/03 02:30:24;;;;;;;9.47;8.47;;;;;;;;;;7378666;19;20610;-78
2022/06/03 02:32:02;;;;;;;9.17;8.27;;;;;;;;;;7379402;19;20164;-78
2022/06/03 02:34:39;;;;;;;9.40;8.60;;;;;;;;;;7378225;19;20140;-78
2022/06/03 02:37:26;;;;;;;9.60;8.60;;;;;;;;;;7375604;19;20180;-78
2022/06/03 02:40:14;;;;;;;10.30;9.40;;;;;;;;;;7385482;19;20456;-77
2022/06/03 02:42:45;;;;;;;9.53;8.60;;;;;;;;;;7376391;19;20638;-77
2022/06/03 02:45:23;;;;;;;9.77;8.87;;;;;;;;;;7375596;19;20121;-78
2022/06/03 02:47:50;;;;;;;8.30;7.60;;;;;;;;;;7373660;19;20617;-77
2022/06/03 02:50:24;;;;;;;10.03;9.10;;;;;;;;;;7375448;19;20132;-77
2022/06/03 02:52:59;;;;;;;9.87;8.93;;;;;;;;;;7367904;19;20176;-77
2022/06/03 02:55:29;;;;;;;8.53;7.73;;;;;;;;;;7376145;19;20529;-77
2022/06/03 02:58:07;;;;;;;8.53;7.70;;;;;;;;;;7367580;19;20125;-77
2022/06/03 03:00:43;;;;;;;10.17;8.47;;;;;;;;;;7372143;19;20148;-77
2022/06/03 03:03:21;;;;;;;7.90;7.20;;;;;;;;;;7366950;19;20144;-78
2022/06/03 03:05:50;;;;;;;9.60;8.60;;;;;;;;;;7382223;19;20152;-77
2022/06/03 03:08:34;;;;;;;8.70;7.53;;;;;;;;;;7373598;19;20160;-77
2022/06/03 03:11:09;;;;;;;8.77;7.97;;;;;;;;;;7378838;19;20140;-77
2022/06/03 03:13:44;;;;;;;8.50;7.30;;;;;;;;;;7369734;19;20220;-78
2022/06/03 03:16:29;;;;;;;9.23;8.30;;;;;;;;;;7363810;19;20168;-78
2022/06/03 03:18:57;;;;;;;10.27;8.10;;;;;;;;;;7375974;19;20582;-78
2022/06/03 03:21:36;;;;;;;10.40;7.53;;;;;;;;;;7372800;19;20149;-78
2022/06/03 03:24:20;;;;;;;10.30;7.90;;;;;;;;;;7360410;19;20160;-77
2022/06/03 03:26:59;;;;;;;11.37;7.60;;;;;;;;;;7370148;19;20152;-80
2022/06/03 03:29:31;;;;;;;9.73;8.07;;;;;;;;;;7374996;19;20140;-78
2022/06/03 03:31:57;;;;;;;12.27;8.33;;;;;;;;;;7368316;19;20133;-78
2022/06/03 03:34:46;;;;;;;10.20;9.07;;;;;;;;;;7372264;19;20471;-78
2022/06/03 03:37:24;;;;;;;8.97;8.03;;;;;;;;;;7374757;19;20172;-79
2022/06/03 03:40:12;;;;;;;9.30;8.33;;;;;;;;;;7377437;19;20152;-78
2022/06/03 03:42:38;;;;;;;10.37;8.40;;;;;;;;;;7380454;19;20461;-78
2022/06/03 03:45:04;;;;;;;10.63;8.93;;;;;;;;;;7383485;19;20133;-78
2022/06/03 03:47:30;;;;;;;10.33;8.73;;;;;;;;;;7380557;19;20148;-78
2022/06/03 03:50:02;;;;;;;8.87;7.97;;;;;;;;;;7382707;19;20129;-78
2022/06/03 03:52:28;;;;;;;10.23;7.97;;;;;;;;;;7376196;19;20133;-77
2022/06/03 03:54:54;;;;;;;11.63;8.87;;;;;;;;;;7378622;19;20136;-78
2022/06/03 03:57:26;;;;;;;9.73;8.53;;;;;;;;;;7380775;19;20216;-78
2022/06/03 04:00:05;;;;;;;9.83;8.70;;;;;;;;;;7376936;19;20141;-79
2022/06/03 04:02:37;;;;;;;11.40;8.80;;;;;;;;;;7381936;19;20216;-78
2022/06/03 04:05:16;;;;;;;9.03;8.13;;;;;;;;;;7374328;19;20182;-78
2022/06/03 04:08:01;;;;;;;12.03;8.13;;;;;;;;;;7380915;19;20133;-78
2022/06/03 04:10:30;;;;;;;9.00;8.10;;;;;;;;;;7380829;19;20589;-78
2022/06/03 04:12:59;;;;;;;9.20;8.17;;;;;;;;;;7380566;19;20165;-79
2022/06/03 04:15:44;;;;;;;10.93;8.17;;;;;;;;;;7385025;19;20176;-78
2022/06/03 04:18:19;;;;;;;8.57;7.70;;;;;;;;;;7382587;19;20148;-78
2022/06/03 04:21:04;;;;;;;9.07;8.17;;;;;;;;;;7388876;19;20167;-79
2022/06/03 04:23:49;;;;;;;8.93;7.93;;;;;;;;;;7389940;19;20129;-81
2022/06/03 04:26:33;;;;;;;11.40;8.70;;;;;;;;;;7387477;19;20156;-78
2022/06/03 04:29:34;;;;;;;8.90;8.00;;;;;;;;;;7387431;19;20140;-78
2022/06/03 04:32:09;;;;;;;9.67;8.20;;;;;;;;;;7387203;19;20599;-78
2022/06/03 04:34:54;;;;;;;8.33;7.53;;;;;;;;;;7382861;19;20200;-78
2022/06/03 04:37:20;;;;;;;9.87;7.37;;;;;;;;;;7382655;19;20152;-78
2022/06/03 04:40:12;;;;;;;7.93;7.10;;;;;;;;;;7385285;19;20168;-78
2022/06/03 04:43:16;;;;;;;9.90;6.97;;;;;;;;;;7389164;19;20583;-78
2022/06/03 04:46:01;;;;;;;10.97;8.73;;;;;;;;;;7381986;19;20172;-78
2022/06/03 04:48:27;;;;;;;10.37;8.90;;;;;;;;;;7390446;19;20121;-78
2022/06/03 04:51:08;;;;;;;9.20;8.30;;;;;;;;;;7403306;19;20160;-78
2022/06/03 04:53:53;;;;;;;10.90;9.17;;;;;;;;;;7400321;19;20129;-78
2022/06/03 04:56:37;;;;;;;8.60;7.80;;;;;;;;;;7400906;19;20233;-77
2022/06/03 04:59:22;;;;;;;10.57;8.80;;;;;;;;;;7385721;19;20256;-78
2022/06/03 05:01:48;;;;;;;9.83;8.43;;;;;;;;;;7382320;19;20144;-78
2022/06/03 05:04:33;;;;;;;9.43;8.43;;;;;;;;;;7390507;19;20554;-78
2022/06/03 05:07:11;;;;;;;10.00;9.03;;;;;;;;;;7392308;19;20405;-79
2022/06/03 05:09:56;;;;;;;14.77;10.30;;;;;;;;;;7400155;19;20117;-78
2022/06/03 05:12:21;;;;;;;11.43;9.50;;;;;;;;;;7404392;19;20132;-78
2022/06/03 05:15:06;;;;;;;12.43;10.23;;;;;;;;;;7394738;19;20124;-80
2022/06/03 05:17:41;;;;;;;11.27;10.17;;;;;;;;;;7385660;19;20133;-78
2022/06/03 05:20:42;;;;;;;10.53;9.53;;;;;;;;;;7384210;19;20132;-78
2022/06/03 05:23:16;;;;;;;13.70;9.77;;;;;;;;;;7381720;19;20180;-78
2022/06/03 05:25:45;;;;;;;10.55;9.60;;;;;;;;;;7384785;19;20645;-78
2022/06/03 05:28:14;;;;;;;12.87;10.07;;;;;;;;;;7385579;19;20137;-78
2022/06/03 05:30:47;;;;;;;11.13;9.80;;;;;;;;;;7385022;19;20117;-78
2022/06/03 05:33:27;;;;;;;13.25;10.85;;;;;;;;;;7386839;19;20148;-78
2022/06/03 05:35:59;;;;;;;11.23;10.18;;;;;;;;;;7383013;19;20241;-78
2022/06/03 05:38:43;;;;;;;11.40;10.30;;;;;;;;;;7382665;19;20159;-77
2022/06/03 05:42:23;;;;;;;14.30;9.98;;;;;;;;;;7376791;19;20161;-78
2022/06/03 05:44:01;;;;;;;12.82;11.57;;;;;;;;;;7388742;19;20183;-78
2022/06/03 05:46:30;;;;;;;12.52;11.23;;;;;;;;;;7388079;19;20148;-78
2022/06/03 05:49:12;;;;;;;13.77;10.90;;;;;;;;;;7383960;19;20149;-78
2022/06/03 05:51:38;;;;;;;14.60;11.70;;;;;;;;;;7382014;19;20222;-78
2022/06/03 05:54:07;;;;;;;12.63;11.43;;;;;;;;;;7390628;19;20152;-78
2022/06/03 05:56:52;;;;;;;12.48;10.88;;;;;;;;;;7385761;19;20184;-78
2022/06/03 05:59:38;;;;;;;12.27;11.05;;;;;;;;;;7382830;19;20179;-77
2022/06/03 06:02:16;;;;;;;13.70;12.38;;;;;;;;;;7381685;19;20221;-77
2022/06/03 06:04:48;;;;;;;12.88;11.57;;;;;;;;;;7384639;19;20518;-77
2022/06/03 06:07:33;;;;;;;13.00;11.68;;;;;;;;;;7382365;19;20156;-78
2022/06/03 06:09:59;;;;;;;14.48;11.77;;;;;;;;;;7385836;19;20125;-78
2022/06/03 06:12:28;;;;;;;12.07;11.07;;;;;;;;;;7390697;19;20121;-79
2022/06/03 06:14:53;;;;;;;12.68;11.45;;;;;;;;;;7380446;19;20945;-78
2022/06/03 06:17:32;;;;;;;12.10;10.50;;;;;;;;;;7390473;19;20200;-79
2022/06/03 06:20:03;;;;;;;12.52;11.32;;;;;;;;;;7388484;19;20132;-80
2022/06/03 06:22:30;;;;;;;12.50;11.15;;;;;;;;;;7391030;19;20220;-79
2022/06/03 06:24:58;;;;;;;12.13;10.93;;;;;;;;;;7384450;19;20148;-79
2022/06/03 06:27:30;;;;;;;12.82;10.73;;;;;;;;;;7390949;19;20153;-81
2022/06/03 06:29:56;;;;;;;13.27;10.93;;;;;;;;;;7378660;19;20133;-77
2022/06/03 06:32:25;;;;;;;14.00;11.30;;;;;;;;;;7388308;19;20191;-78
2022/06/03 06:35:00;;;;;;;12.38;10.80;;;;;;;;;;7384653;19;20197;-78
2022/06/03 06:37:29;;;;;;;11.63;10.30;;;;;;;;;;7385561;19;20120;-78
2022/06/03 06:40:04;;;;;;;13.18;11.23;;;;;;;;;;7377703;19;20163;-78
2022/06/03 06:42:39;;;;;;;12.70;11.43;;;;;;;;;;7388266;19;20124;-78
2022/06/03 06:45:12;;;;;;;11.38;10.38;;;;;;;;;;7371688;19;20223;-78
2022/06/03 06:47:45;;;;;;;11.50;9.70;;;;;;;;;;7386170;19;20474;-78
2022/06/03 06:50:34;;;;;;;11.57;10.45;;;;;;;;;;7385747;19;20157;-77
2022/06/03 06:53:03;;;;;;;11.23;10.23;;;;;;;;;;7376875;19;20578;-77
2022/06/03 06:55:48;;;;;;;10.35;9.40;;;;;;;;;;7382429;19;20525;-78
2022/06/03 06:58:24;;;;;;;11.55;9.35;;;;;;;;;;7378423;19;20152;-81
2022/06/03 07:00:52;;;;;;;9.70;8.80;;;;;;;;;;7381034;19;20602;-79
2022/06/03 07:03:21;;;;;;;11.20;10.10;;;;;;;;;;7384340;19;20206;-79
2022/06/03 07:05:50;;;;;;;10.90;9.13;;;;;;;;;;7385576;19;20224;-79
2022/06/03 07:08:25;;;;;;;9.95;8.95;;;;;;;;;;7375621;19;20133;-79
2022/06/03 07:10:54;;;;;;;10.23;9.25;;;;;;;;;;7369810;19;20124;-79
2022/06/03 07:13:33;;;;;;;9.60;8.48;;;;;;;;;;7374350;19;20133;-78
2022/06/03 07:22:30;;;;;;;11.32;8.65;;;;;;;;;;7378267;19;20156;-78
2022/06/03 07:25:02;;;;;;;10.00;9.10;;;;;;;;;;7365044;19;20184;-78
2022/06/03 07:27:51;;;;;;;9.20;7.93;;;;;;;;;;7376175;19;20516;-78
2022/06/03 07:30:20;;;;;;;8.13;7.40;;;;;;;;;;7376403;19;20157;-78
2022/06/03 07:32:57;;;;;;;8.18;7.43;;;;;;;;;;7379068;19;20128;-78
2022/06/03 07:35:43;;;;;;;7.53;6.93;;;;;;;;;;7364902;19;20247;-78
2022/06/03 07:38:09;;;;;;;9.20;8.30;;;;;;;;;;7366906;19;20128;-78
2022/06/03 07:40:38;;;;;;;12.45;9.20;;;;;;;;;;7371512;19;20221;-78
2022/06/03 07:43:19;;;;;;;8.95;8.05;;;;;;;;;;7382785;19;20140;-78
2022/06/03 07:45:55;;;;;;;8.02;7.22;;;;;;;;;;7364884;19;20172;-78
2022/06/03 07:48:22;;;;;;;10.00;8.40;;;;;;;;;;7364527;19;20162;-78
2022/06/03 07:50:48;;;;;;;7.03;6.43;;;;;;;;;;7367802;19;20148;-77
2022/06/03 07:53:21;;;;;;;6.85;6.13;;;;;;;;;;7375634;19;20155;-78
2022/06/03 07:55:52;;;;;;;7.55;6.95;;;;;;;;;;7360776;19;20176;-78
2022/06/03 07:58:18;;;;;;;6.68;5.88;;;;;;;;;;7368527;19;20140;-78
2022/06/03 08:00:45;;;;;;;8.25;7.45;;;;;;;;;;7369672;19;20642;-78
2022/06/03 08:03:17;;;;;;;8.52;6.53;;;;;;;;;;7356973;19;20738;-79
2022/06/03 08:05:45;;;;;;;6.47;5.88;;;;;;;;;;7359505;19;20180;-78
2022/06/03 08:10:59;;;;;;;6.65;6.03;;;;;;;;;;7374679;19;20162;-78
2022/06/03 08:13:43;;;;;;;8.63;6.28;;;;;;;;;;7368745;19;20535;-78
2022/06/03 08:16:15;;;;;;;8.25;6.00;;;;;;;;;;7375608;19;20172;-78
2022/06/03 08:18:43;;;;;;;5.45;4.95;;;;;;;;;;7369891;19;20121;-79
2022/06/03 08:21:44;;;;;;;5.80;5.28;;;;;;;;;;7378609;19;20137;-78
2022/06/03 08:24:13;;;;;;;6.18;5.65;;;;;;;;;;7373199;19;20163;-79
2022/06/03 08:26:42;;;;;;;11.50;6.18;;;;;;;;;;7382792;19;20156;-79
2022/06/03 08:29:13;;;;;;;6.80;5.20;;;;;;;;;;7361409;19;20606;-78
2022/06/03 08:31:39;;;;;;;5.63;5.13;;;;;;;;;;7358430;19;20132;-78
2022/06/03 08:34:07;;;;;;;5.40;4.88;;;;;;;;;;7362721;19;20156;-78
2022/06/03 08:36:37;;;;;;;5.60;4.95;;;;;;;;;;7369910;19;20153;-78
2022/06/03 08:39:06;;;;;;;8.13;4.80;;;;;;;;;;7370181;19;20153;-78
2022/06/03 08:41:51;;;;;;;5.68;5.18;;;;;;;;;;7381898;19;20152;-78
2022/06/03 08:44:30;;;;;;;5.15;4.65;;;;;;;;;;7389439;19;20140;-78
2022/06/03 08:47:00;;;;;;;7.00;4.72;;;;;;;;;;7410914;19;20186;-78
2022/06/03 08:49:30;;;;;;;5.00;4.60;;;;;;;;;;7404231;19;20145;-78
2022/06/03 08:52:07;;;;;;;5.53;4.75;;;;;;;;;;7398396;19;20145;-78
2022/06/03 08:54:39;;;;;;;5.22;4.72;;;;;;;;;;7402458;19;20140;-78
2022/06/03 08:57:11;;;;;;;7.15;5.53;;;;;;;;;;7392473;19;20284;-78
2022/06/03 08:59:43;;;;;;;5.72;5.13;;;;;;;;;;7385007;19;20120;-78
2022/06/03 09:02:11;;;;;;;4.88;4.47;;;;;;;;;;7383414;19;20168;-78
2022/06/03 09:04:46;;;;;;;5.60;5.07;;;;;;;;;;7387770;19;20162;-78
2022/06/03 09:07:16;;;;;;;5.65;4.85;;;;;;;;;;7380293;19;20199;-78
2022/06/03 09:09:44;;;;;;;5.05;4.60;;;;;;;;;;7389286;19;20598;-78
2022/06/03 09:12:19;;;;;;;5.07;4.50;;;;;;;;;;7384200;19;20219;-78
2022/06/03 09:14:47;;;;;;;5.93;5.43;;;;;;;;;;7386201;19;20148;-78
2022/06/03 09:17:22;;;;;;;5.90;5.38;;;;;;;;;;7384089;19;20183;-78
2022/06/03 09:19:48;;;;;;;4.85;4.40;;;;;;;;;;7388335;19;20672;-78
2022/06/03 09:22:19;;;;;;;5.35;4.93;;;;;;;;;;7372914;19;20129;-78
2022/06/03 09:24:45;;;;;;;5.75;4.60;;;;;;;;;;7383777;19;20185;-78
2022/06/03 09:27:13;;;;;;;8.48;5.22;;;;;;;;;;7383289;19;20167;-78
2022/06/03 09:29:40;;;;;;;5.55;4.90;;;;;;;;;;7385407;19;20173;-78
2022/06/03 09:32:07;;;;;;;8.40;5.40;;;;;;;;;;7382263;19;20519;-78
2022/06/03 09:34:47;;;;;;;7.38;5.50;;;;;;;;;;7382357;19;20164;-78
2022/06/03 09:37:16;;;;;;;6.07;5.03;;;;;;;;;;7370485;19;20175;-78
2022/06/03 09:39:47;;;;;;;5.60;5.10;;;;;;;;;;7362533;19;20152;-78
2022/06/03 09:42:14;;;;;;;8.00;6.20;;;;;;;;;;7358578;19;20152;-78
2022/06/03 09:44:41;;;;;;;7.10;5.95;;;;;;;;;;7372504;19;20159;-78
2022/06/03 09:47:08;;;;;;;7.70;7.00;;;;;;;;;;7371814;19;20176;-78
2022/06/03 09:49:35;;;;;;;5.55;5.05;;;;;;;;;;7364617;19;20128;-78
2022/06/03 09:52:07;;;;;;;5.18;4.78;;;;;;;;;;7364998;19;20160;-78
2022/06/03 09:54:35;;;;;;;7.32;5.25;;;;;;;;;;7377461;19;20615;-79
2022/06/03 09:57:14;;;;;;;5.43;4.93;;;;;;;;;;7377198;19;20953;-79
2022/06/03 09:59:43;;;;;;;5.32;4.82;;;;;;;;;;7372861;19;20269;-80
2022/06/03 10:02:09;;;;;;;5.28;4.57;;;;;;;;;;7375651;19;20121;-79
2022/06/03 10:04:35;;;;;;;6.47;4.95;;;;;;;;;;7364159;19;20448;-79
2022/06/03 10:07:02;;;;;;;5.47;4.43;;;;;;;;;;7366904;19;20186;-79
2022/06/03 10:17:53;;;;;;;5.13;4.22;;;;;;;;;;7380564;19;20142;-79
2022/06/03 10:20:19;;;;;;;4.28;3.85;;;;;;;;;;7379808;19;20525;-80
2022/06/03 10:22:45;;;;;;;4.95;4.40;;;;;;;;;;7378920;19;20152;-80
2022/06/03 10:25:12;;;;;;;4.18;3.83;;;;;;;;;;7372467;19;20155;-83
2022/06/03 10:27:38;;;;;;;5.65;3.67;;;;;;;;;;7381238;19;20662;-80
2022/06/03 10:30:05;;;;;;;4.90;4.00;;;;;;;;;;7376715;19;20169;-80
2022/06/03 10:32:31;;;;;;;5.03;3.92;;;;;;;;;;7378348;19;20461;-80
2022/06/03 10:35:05;;;;;;;4.43;3.85;;;;;;;;;;7373699;19;20133;-80
2022/06/03 10:37:34;;;;;;;4.13;3.72;;;;;;;;;;7378401;19;20150;-79
2022/06/03 10:40:00;;;;;;;4.20;3.80;;;;;;;;;;7369119;19;20156;-80
2022/06/03 10:42:26;;;;;;;4.45;3.60;;;;;;;;;;7377102;19;20168;-81
2022/06/03 10:44:56;;;;;;;4.70;3.75;;;;;;;;;;7373808;19;20133;-79
2022/06/03 10:47:33;;;;;;;5.57;3.33;;;;;;;;;;7365519;19;20125;-81
2022/06/03 10:50:00;;;;;;;3.63;3.40;;;;;;;;;;7374134;19;20149;-80
2022/06/03 11:01:07;;;;;;;6.55;4.93;;;;;;;;;;7370426;19;20127;-80
2022/06/03 11:03:33;;;;;;;5.03;4.60;;;;;;;;;;7375487;19;20265;-80
2022/06/03 11:06:07;;;;;;;5.63;4.70;;;;;;;;;;7372775;19;20189;-80
2022/06/03 11:08:59;;;;;;;5.20;4.70;;;;;;;;;;7382760;19;20451;-80
2022/06/03 11:11:32;;;;;;;5.25;4.70;;;;;;;;;;7377840;19;20145;-80
2022/06/03 11:13:58;;;;;;;6.38;4.53;;;;;;;;;;7380822;19;20176;-80
2022/06/03 11:16:25;;;;;;;5.60;4.25;;;;;;;;;;7375898;19;20188;-80
2022/06/03 11:18:51;;;;;;;5.38;4.10;;;;;;;;;;7370635;19;20136;-80
2022/06/03 11:21:25;;;;;;;5.00;4.05;;;;;;;;;;7367010;19;20144;-79
2022/06/03 11:23:52;;;;;;;4.90;3.50;;;;;;;;;;7360369;19;20192;-80
2022/06/03 11:26:18;;;;;;;4.40;3.17;;;;;;;;;;7372798;19;20261;-80
2022/06/03 11:28:51;;;;;;;4.22;3.33;;;;;;;;;;7362490;19;20141;-80
2022/06/03 11:31:31;;;;;;;5.22;3.45;;;;;;;;;;7374616;19;20136;-80
2022/06/03 11:34:01;;;;;;;4.28;3.80;;;;;;;;;;7367851;19;20137;-80
2022/06/03 11:36:27;;;;;;;5.82;3.95;;;;;;;;;;7371740;19;20185;-79
2022/06/03 11:38:59;;;;;;;3.85;3.55;;;;;;;;;;7354294;19;20652;-79
2022/06/03 11:41:28;;;;;;;4.82;3.63;;;;;;;;;;7367080;19;20148;-79
2022/06/03 11:44:04;;;;;;;3.60;3.30;;;;;;;;;;7372251;19;20136;-80
2022/06/03 11:46:36;;;;;;;4.82;3.45;;;;;;;;;;7370757;19;20693;-80
2022/06/03 11:49:02;;;;;;;5.60;3.38;;;;;;;;;;7380291;19;20149;-81
2022/06/03 11:51:28;;;;;;;4.45;3.30;;;;;;;;;;7398771;19;20161;-81
2022/06/03 11:53:55;;;;;;;5.75;3.22;;;;;;;;;;7397377;19;20124;-80
2022/06/03 11:56:24;;;;;;;5.53;3.28;;;;;;;;;;7393524;19;20137;-81
2022/06/03 11:58:56;;;;;;;3.97;3.35;;;;;;;;;;7399287;19;20141;-81
2022/06/03 12:01:45;;;;;;;5.32;3.30;;;;;;;;;;7350653;19;20125;-81
2022/06/03 12:04:14;;;;;;;5.80;3.67;;;;;;;;;;7374265;19;20140;-80
2022/06/03 12:06:46;;;;;;;4.25;3.30;;;;;;;;;;7367446;19;20149;-81
2022/06/03 12:09:26;;;;;;;3.55;3.25;;;;;;;;;;7400882;19;20159;-80
2022/06/03 12:14:57;;;;;;;4.80;2.80;;;;;;;;;;7396503;19;20134;-82
2022/06/03 12:17:31;;;;;;;3.45;2.88;;;;;;;;;;7381503;19;20156;-80
2022/06/03 12:19:57;;;;;;;4.10;3.58;;;;;;;;;;7352937;19;20149;-81
2022/06/03 12:22:29;;;;;;;4.22;3.92;;;;;;;;;;7354278;19;20149;-80
2022/06/03 12:24:55;;;;;;;6.97;3.90;;;;;;;;;;7364109;19;20144;-80
2022/06/03 12:27:27;;;;;;;5.38;3.97;;;;;;;;;;7365444;19;20648;-81
2022/06/03 12:30:02;;;;;;;6.10;3.85;;;;;;;;;;7374473;19;20521;-81
2022/06/03 12:32:29;;;;;;;7.68;3.70;;;;;;;;;;7380821;19;20483;-80
2022/06/03 12:35:13;;;;;;;3.25;2.97;;;;;;;;;;7373070;19;20610;-81
2022/06/03 12:37:39;;;;;;;4.72;3.10;;;;;;;;;;7378601;19;20176;-80
2022/06/03 12:40:20;;;;;;;5.82;3.60;;;;;;;;;;7376434;19;20619;-81
2022/06/03 12:42:47;;;;;;;3.13;2.90;;;;;;;;;;7371346;19;20152;-81
2022/06/03 12:45:14;;;;;;;5.25;2.78;;;;;;;;;;7377198;19;20161;-80
2022/06/03 12:47:43;;;;;;;2.90;2.60;;;;;;;;;;7365589;19;20650;-81
2022/06/03 12:50:09;;;;;;;6.35;2.97;;;;;;;;;;7382947;19;20168;-80
2022/06/03 12:52:37;;;;;;;2.60;2.28;;;;;;;;;;7380423;19;20128;-80
2022/06/03 12:55:06;;;;;;;6.22;3.28;;;;;;;;;;7395935;19;20144;-81
2022/06/03 12:57:50;;;;;;;3.83;3.00;;;;;;;;;;7399625;19;20482;-81
2022/06/03 13:00:19;;;;;;;3.80;2.90;;;;;;;;;;7384987;19;20212;-80
2022/06/03 13:02:49;;;;;;;5.57;2.92;;;;;;;;;;7365834;19;20161;-80
2022/06/03 13:05:21;;;;;;;5.78;3.70;;;;;;;;;;7364574;19;20156;-80
2022/06/03 13:08:02;;;;;;;3.65;3.10;;;;;;;;;;7369826;19;20192;-79
2022/06/03 13:10:30;;;;;;;4.18;2.90;;;;;;;;;;7371250;19;20212;-80
2022/06/03 13:19:18;;;;;;;16.38;3.65;;;;;;;;;;7369032;19;20184;-80
2022/06/03 13:22:00;;;;;;;5.32;3.45;;;;;;;;;;7372483;19;20159;-81
2022/06/03 13:24:33;;;;;;;8.55;4.10;;;;;;;;;;7374533;19;21685;-80
2022/06/03 13:26:59;;;;;;;5.93;4.38;;;;;;;;;;7368233;19;20281;-81
2022/06/03 13:29:44;;;;;;;5.30;3.60;;;;;;;;;;7369939;19;21003;-81
2022/06/03 13:32:18;;;;;;;6.32;3.53;;;;;;;;;;7369501;19;20424;-82
2022/06/03 13:34:45;;;;;;;4.32;3.60;;;;;;;;;;7386885;19;20133;-82
2022/06/03 13:37:22;;;;;;;5.03;3.25;;;;;;;;;;7386348;19;20148;-82
2022/06/03 13:39:51;;;;;;;6.18;3.22;;;;;;;;;;7408032;19;20124;-81
2022/06/03 13:45:04;;;;;;;5.22;4.05;;;;;;;;;;7402560;19;20145;-79
2022/06/03 13:47:30;;;;;;;7.35;4.32;;;;;;;;;;7376091;19;20152;-79
2022/06/03 13:50:14;;;;;;;4.63;3.60;;;;;;;;;;7377429;19;20232;-79
2022/06/03 13:52:46;;;;;;;4.18;3.40;;;;;;;;;;7372168;19;20614;-79
2022/06/03 13:55:13;;;;;;;4.22;3.60;;;;;;;;;;7375917;19;20121;-79
2022/06/03 13:57:42;;;;;;;5.18;3.45;;;;;;;;;;7373748;19;20140;-78
2022/06/03 14:00:17;;;;;;;6.25;3.67;;;;;;;;;;7367716;19;20121;-79
2022/06/03 14:02:45;;;;;;;5.22;3.90;;;;;;;;;;7371209;19;20637;-80
2022/06/03 14:05:15;;;;;;;5.60;3.50;;;;;;;;;;7367666;19;20828;-79
2022/06/03 14:07:43;;;;;;;3.72;3.38;;;;;;;;;;7363479;19;20149;-79
2022/06/03 14:10:18;;;;;;;3.83;3.45;;;;;;;;;;7371254;19;20499;-79
2022/06/03 14:12:59;;;;;;;5.68;3.70;;;;;;;;;;7363229;19;20247;-79
2022/06/03 14:15:39;;;;;;;3.63;3.33;;;;;;;;;;7372129;19;20168;-79
2022/06/03 14:18:05;;;;;;;4.72;3.55;;;;;;;;;;7367974;19;20256;-79
2022/06/03 14:20:32;;;;;;;5.05;3.83;;;;;;;;;;7366359;19;20645;-80
2022/06/03 14:23:08;;;;;;;4.25;3.38;;;;;;;;;;7380407;19;20516;-79
2022/06/03 14:25:51;;;;;;;3.75;3.30;;;;;;;;;;7363501;19;20679;-79
2022/06/03 14:28:33;;;;;;;4.75;3.47;;;;;;;;;;7379057;19;20153;-82
2022/06/03 14:31:17;;;;;;;5.82;3.67;;;;;;;;;;7356425;19;20179;-81
2022/06/03 14:33:47;;;;;;;5.32;3.35;;;;;;;;;;7367678;19;20152;-79
2022/06/03 14:36:18;;;;;;;5.85;3.58;;;;;;;;;;7369403;19;20173;-81
2022/06/03 14:38:52;;;;;;;3.53;3.22;;;;;;;;;;7379601;19;20128;-79
2022/06/03 14:41:38;;;;;;;4.03;3.63;;;;;;;;;;7381024;19;20133;-81
2022/06/03 14:44:08;;;;;;;4.43;3.40;;;;;;;;;;7376378;19;20171;-80
2022/06/03 14:46:36;;;;;;;3.85;3.22;;;;;;;;;;7372683;19;20141;-79
2022/06/03 14:49:05;;;;;;;3.47;3.17;;;;;;;;;;7375767;19;20164;-79
2022/06/03 14:51:34;;;;;;;3.33;3.03;;;;;;;;;;7384465;19;20137;-79
2022/06/03 14:54:02;;;;;;;4.25;2.97;;;;;;;;;;7382778;19;20145;-81
2022/06/03 14:56:28;;;;;;;6.57;3.70;;;;;;;;;;7375394;19;20232;-79
2022/06/03 14:58:56;;;;;;;4.85;3.75;;;;;;;;;;7376715;19;20138;-79
2022/06/03 15:01:41;;;;;;;5.07;3.45;;;;;;;;;;7377122;19;20124;-79
2022/06/03 15:04:11;;;;;;;3.25;2.95;;;;;;;;;;7373754;19;20129;-78
2022/06/03 15:06:41;;;;;;;4.45;2.67;;;;;;;;;;7375208;19;20191;-78
2022/06/03 15:09:10;;;;;;;2.80;2.60;;;;;;;;;;7375786;19;20629;-79
2022/06/03 15:11:37;;;;;;;3.63;2.47;;;;;;;;;;7378559;19;20557;-79
2022/06/03 15:14:07;;;;;;;3.72;2.70;;;;;;;;;;7376840;19;20558;-79
2022/06/03 15:16:34;;;;;;;4.25;2.95;;;;;;;;;;7387438;19;20180;-79
2022/06/03 15:19:00;;;;;;;4.85;3.10;;;;;;;;;;7383250;19;20128;-81
2022/06/03 15:21:28;;;;;;;5.60;3.72;;;;;;;;;;7381536;19;20148;-79
2022/06/03 15:23:56;;;;;;;4.30;3.25;;;;;;;;;;7367949;19;20156;-78
2022/06/03 15:26:24;;;;;;;4.30;3.90;;;;;;;;;;7372692;19;20149;-78
2022/06/03 15:28:57;;;;;;;3.88;3.45;;;;;;;;;;7377155;19;20149;-78
2022/06/03 15:31:24;;;;;;;4.10;3.35;;;;;;;;;;7372604;19;20120;-78
2022/06/03 15:33:58;;;;;;;4.25;3.25;;;;;;;;;;7380815;19;20516;-80
2022/06/03 15:36:25;;;;;;;5.20;2.80;;;;;;;;;;7377716;19;20191;-78
2022/06/03 15:38:53;;;;;;;4.72;2.97;;;;;;;;;;7374381;19;20129;-78
2022/06/03 15:41:20;;;;;;;4.50;2.97;;;;;;;;;;7376325;19;20165;-79
2022/06/03 15:43:48;;;;;;;5.68;2.50;;;;;;;;;;7383842;19;20192;-78
2022/06/03 15:46:31;;;;;;;3.80;2.75;;;;;;;;;;7377542;19;20494;-78
2022/06/03 15:49:01;;;;;;;3.45;2.40;;;;;;;;;;7377970;19;20208;-78
2022/06/03 15:51:28;;;;;;;4.93;2.63;;;;;;;;;;7375216;19;20220;-78
2022/06/03 15:53:59;;;;;;;4.00;2.70;;;;;;;;;;7374199;19;20551;-78
2022/06/03 15:56:34;;;;;;;4.07;3.17;;;;;;;;;;7372765;19;20181;-78
2022/06/03 15:59:03;;;;;;;3.47;2.85;;;;;;;;;;7375192;19;20148;-78
2022/06/03 16:01:36;;;;;;;3.95;3.53;;;;;;;;;;7380524;19;20610;-78
2022/06/03 16:04:04;;;;;;;5.10;2.97;;;;;;;;;;7377581;19;20749;-78
2022/06/03 16:07:03;;;;;;;4.00;3.10;;;;;;;;;;7375416;19;20236;-78
2022/06/03 16:09:44;;;;;;;3.40;3.05;;;;;;;;;;7383020;19;20149;-78
2022/06/03 16:12:13;;;;;;;4.03;3.33;;;;;;;;;;7382934;19;20168;-78
2022/06/03 16:14:45;;;;;;;3.53;3.22;;;;;;;;;;7381089;19;20141;-79
2022/06/03 16:17:30;;;;;;;3.95;3.10;;;;;;;;;;7376480;19;20172;-78
2022/06/03 16:20:08;;;;;;;3.80;3.40;;;;;;;;;;7382360;19;20141;-78
2022/06/03 16:22:44;;;;;;;5.93;3.05;;;;;;;;;;7383263;19;20162;-79
2022/06/03 16:25:17;;;;;;;4.38;2.95;;;;;;;;;;7376126;19;20653;-79
2022/06/03 16:27:46;;;;;;;4.35;3.15;;;;;;;;;;7382788;19;20121;-79
2022/06/03 16:30:16;;;;;;;3.90;3.30;;;;;;;;;;7372588;19;20160;-79
2022/06/03 16:32:50;;;;;;;3.53;3.10;;;;;;;;;;7381849;19;20133;-79
2022/06/03 16:35:39;;;;;;;4.15;3.05;;;;;;;;;;7379669;19;20168;-79
2022/06/03 16:38:08;;;;;;;4.65;3.53;;;;;;;;;;7372117;19;22924;-79
2022/06/03 16:40:45;;;;;;;3.60;3.30;;;;;;;;;;7385701;19;20136;-79
2022/06/03 16:43:23;;;;;;;4.10;3.67;;;;;;;;;;7386861;19;20384;-79
2022/06/03 16:46:05;;;;;;;3.75;3.45;;;;;;;;;;7380111;19;20604;-79
2022/06/03 16:48:50;;;;;;;4.15;3.60;;;;;;;;;;7385482;19;21172;-79
2022/06/03 16:51:43;;;;;;;4.32;3.25;;;;;;;;;;7378305;19;20151;-79
2022/06/03 16:54:11;;;;;;;4.68;3.83;;;;;;;;;;7375354;19;20136;-80
2022/06/03 16:56:38;;;;;;;4.65;3.85;;;;;;;;;;7377536;19;20157;-77
2022/06/03 16:59:12;;;;;;;4.97;4.00;;;;;;;;;;7384517;19;22837;-78
2022/06/03 17:01:40;;;;;;;5.22;4.30;;;;;;;;;;7376597;19;20164;-79
2022/06/03 17:04:06;;;;;;;4.65;4.20;;;;;;;;;;7387437;19;20500;-78